Time;durP1;ratioP1;P1;durP2;ratioP2;P2;SDS_P1;SDS_P2;PMS_P1;PMS_P2;Temp;Humidity;BMP_temperature;BMP_pressure;BME280_temperature;BME280_humidity;BME280_pressure;Samples;Min_cycle;Max_cycle;Signal;HPM_P1;HPM_P2
2023/10/06 00:02:08;;;;;;;37.00;13.90;;;;;;;-141.97;60.63;47511.38;5032354;28;20241;-87
2023/10/06 00:04:38;;;;;;;26.33;12.43;;;;;;;-141.97;60.61;47530.59;5015744;28;20264;-89
2023/10/06 00:07:07;;;;;;;27.43;12.83;;;;;;;-141.97;60.72;47513.31;5037307;28;20154;-90
2023/10/06 00:09:33;;;;;;;24.70;12.90;;;;;;;-141.97;60.77;47515.22;5015015;28;20182;-90
2023/10/06 00:11:59;;;;;;;23.63;12.47;;;;;;;-141.97;60.47;47453.72;5013823;28;20269;-90
2023/10/06 00:14:42;;;;;;;23.53;12.23;;;;;;;-141.97;60.39;47519.06;5031628;28;20166;-90
2023/10/06 00:17:17;;;;;;;29.23;12.37;;;;;;;-141.97;60.43;47507.53;5030799;28;20174;-89
2023/10/06 00:19:44;;;;;;;31.00;13.23;;;;;;;-141.97;60.38;47522.91;5032154;28;20725;-89
2023/10/06 00:22:18;;;;;;;26.40;13.07;;;;;;;-141.97;60.35;47496.00;5034104;28;20461;-89
2023/10/06 00:24:50;;;;;;;26.90;12.60;;;;;;;-141.97;60.41;47684.38;5014738;28;20169;-89
2023/10/06 00:27:24;;;;;;;26.03;13.27;;;;;;;-141.97;60.11;47453.72;5031817;28;20161;-87
2023/10/06 00:29:56;;;;;;;22.80;12.53;;;;;;;-141.97;60.12;47534.44;5030421;28;20208;-84
2023/10/06 00:32:28;;;;;;;24.77;12.43;;;;;;;-141.97;60.36;47542.16;5031016;28;20264;-85
2023/10/06 00:35:07;;;;;;;31.33;13.10;;;;;;;-141.97;60.43;47507.53;5031111;28;20170;-86
2023/10/06 00:37:35;;;;;;;27.97;13.00;;;;;;;-141.97;60.84;47505.63;5013475;28;20180;-86
2023/10/06 00:40:00;;;;;;;23.30;12.77;;;;;;;-141.97;60.99;47528.69;5030559;28;20269;-86
2023/10/06 00:42:27;;;;;;;22.97;12.07;;;;;;;-141.97;60.88;47534.44;5021099;28;20254;-86
2023/10/06 00:44:53;;;;;;;31.77;12.37;;;;;;;-141.97;60.56;47522.91;5029039;28;20608;-84
2023/10/06 00:47:21;;;;;;;30.67;12.77;;;;;;;-141.97;60.82;47515.22;5031171;28;20158;-86
2023/10/06 00:49:46;;;;;;;27.93;11.73;;;;;;;-141.97;60.73;47494.09;5030828;28;20219;-86
2023/10/06 00:52:12;;;;;;;27.70;13.03;;;;;;;-141.97;60.74;47515.22;5030692;28;20186;-85
2023/10/06 00:54:42;;;;;;;21.27;12.30;;;;;;;-141.97;61.17;47511.38;5030571;28;20158;-86
2023/10/06 00:57:11;;;;;;;23.83;12.43;;;;;;;-141.97;61.02;47544.06;5029791;28;20197;-85
2023/10/06 00:59:37;;;;;;;26.73;12.37;;;;;;;-141.97;61.12;47434.50;5031342;28;20253;-88
2023/10/06 01:02:08;;;;;;;24.43;12.80;;;;;;;-141.97;61.45;47530.59;5031383;28;20162;-88
2023/10/06 01:04:42;;;;;;;25.70;13.27;;;;;;;-141.97;61.42;47509.47;5031295;28;20535;-89
2023/10/06 01:07:08;;;;;;;25.47;12.73;;;;;;;-141.97;61.75;47524.84;5030915;28;20188;-88
2023/10/06 01:09:33;;;;;;;27.10;13.40;;;;;;;-141.97;61.92;47517.16;5030904;28;20524;-89
2023/10/06 01:11:59;;;;;;;25.10;13.10;;;;;;;-141.97;62.05;47574.81;5030999;28;20665;-88
2023/10/06 01:14:27;;;;;;;21.80;13.60;;;;;;;-141.97;61.97;47542.16;5031215;28;20170;-89
2023/10/06 01:19:47;;;;;;;26.10;12.90;;;;;;;-141.97;62.29;47592.13;5031706;28;20165;-90
2023/10/06 01:22:24;;;;;;;27.20;13.30;;;;;;;-141.97;62.09;47544.06;5030189;28;20177;-91
2023/10/06 01:24:53;;;;;;;28.23;13.07;;;;;;;-141.97;62.24;47484.47;5031541;28;20165;-90
2023/10/06 01:27:19;;;;;;;27.87;13.77;;;;;;;-141.97;63.02;47469.09;5031585;28;20196;-90
2023/10/06 01:29:45;;;;;;;28.23;13.57;;;;;;;-141.97;64.05;47507.53;5031682;28;20173;-91
2023/10/06 01:32:11;;;;;;;23.97;13.53;;;;;;;-141.97;64.41;47580.59;5033462;28;20226;-91
2023/10/06 01:34:40;;;;;;;24.50;13.17;;;;;;;-141.97;64.75;47522.91;5017488;28;20236;-90
2023/10/06 01:37:07;;;;;;;29.20;14.17;;;;;;;-141.97;64.01;47536.38;5020149;28;20185;-91
2023/10/06 01:39:35;;;;;;;33.30;15.80;;;;;;;-141.97;63.32;47496.00;5041297;28;20217;-90
2023/10/06 01:42:06;;;;;;;34.13;17.87;;;;;;;-141.97;62.86;47526.75;5043565;28;20138;-86
2023/10/06 01:44:34;;;;;;;29.50;15.03;;;;;;;-141.97;63.85;47546.00;5052130;28;20211;-88
2023/10/06 01:47:00;;;;;;;31.37;14.20;;;;;;;-141.97;63.85;47570.97;5043361;28;20307;-85
2023/10/06 01:49:27;;;;;;;28.83;13.07;;;;;;;-141.97;64.40;47507.53;5045731;28;20172;-88
2023/10/06 01:51:53;;;;;;;28.97;13.80;;;;;;;-141.97;65.61;47540.22;5038857;28;20193;-88
2023/10/06 01:54:19;;;;;;;25.53;13.67;;;;;;;-141.97;65.50;47546.00;5017145;28;20396;-89
2023/10/06 01:56:48;;;;;;;27.07;13.57;;;;;;;-141.97;65.11;47521.00;5034704;28;20232;-88
2023/10/06 01:59:17;;;;;;;29.70;13.77;;;;;;;-141.97;64.69;47530.59;5034843;28;20788;-87
2023/10/06 02:01:43;;;;;;;27.23;13.33;;;;;;;-141.97;64.74;47424.91;5034511;28;20200;-87
2023/10/06 02:04:14;;;;;;;26.40;14.00;;;;;;;-141.97;64.59;47446.03;5034398;28;20269;-88
2023/10/06 02:06:46;;;;;;;29.17;14.07;;;;;;;-141.97;64.20;47509.47;5016935;28;20256;-88
2023/10/06 02:09:25;;;;;;;27.33;13.73;;;;;;;-141.97;64.62;47553.69;5023443;28;20183;-87
2023/10/06 02:11:50;;;;;;;29.07;13.80;;;;;;;-141.97;64.22;47584.44;5017673;28;20186;-87
2023/10/06 02:14:17;;;;;;;29.83;13.53;;;;;;;-141.97;64.39;47503.69;5030526;28;20197;-85
2023/10/06 02:16:46;;;;;;;28.63;14.97;;;;;;;-141.97;64.40;47549.84;5036600;28;20248;-88
2023/10/06 02:19:16;;;;;;;34.80;16.73;;;;;;;-141.97;63.66;47663.22;5040058;28;20174;-90
2023/10/06 02:21:46;;;;;;;34.17;16.60;;;;;;;-141.97;63.25;47553.69;5035539;28;20166;-87
2023/10/06 02:24:20;;;;;;;32.03;16.50;;;;;;;-141.97;62.81;47501.78;5015718;28;20277;-88
2023/10/06 02:26:57;;;;;;;28.67;15.70;;;;;;;-141.97;63.38;47549.84;5033443;28;20174;-89
2023/10/06 02:29:23;;;;;;;30.23;16.80;;;;;;;-141.97;63.82;47521.00;5033931;28;20544;-90
2023/10/06 02:31:53;;;;;;;32.63;15.30;;;;;;;-141.97;64.09;47538.28;5031919;28;20287;-88
2023/10/06 02:34:29;;;;;;;32.77;15.10;;;;;;;-141.97;64.84;47505.63;5033475;28;20162;-85
2023/10/06 02:36:54;;;;;;;35.27;15.77;;;;;;;-141.97;66.98;47563.28;5033799;28;20256;-85
2023/10/06 02:39:20;;;;;;;32.50;15.27;;;;;;;-141.97;68.12;47653.63;5033238;28;20262;-85
2023/10/06 02:41:52;;;;;;;27.90;14.00;;;;;;;-141.97;69.36;47549.84;5033328;28;20185;-84
2023/10/06 02:44:22;;;;;;;28.27;14.73;;;;;;;-141.97;69.98;47546.00;5023264;28;20295;-86
2023/10/06 02:46:50;;;;;;;30.67;15.60;;;;;;;-141.97;70.41;47544.06;5032568;28;20231;-85
2023/10/06 02:49:24;;;;;;;31.00;14.83;;;;;;;-141.97;70.87;47476.78;5033027;28;20249;-85
2023/10/06 02:51:50;;;;;;;32.30;15.13;;;;;;;-141.97;70.41;47563.28;5014544;28;20200;-86
2023/10/06 02:56:43;;;;;;;28.10;14.27;;;;;;;-141.97;71.09;47534.44;5032719;28;20178;-87
2023/10/06 03:02:06;;;;;;;30.97;13.60;;;;;;;-141.97;71.32;47524.84;4991290;28;20195;-87
2023/10/06 03:04:36;;;;;;;30.50;13.50;;;;;;;-141.97;71.08;47536.38;4991932;28;20791;-86
2023/10/06 03:07:11;;;;;;;24.30;13.53;;;;;;;-141.97;70.49;47549.84;4990919;28;20194;-87
2023/10/06 03:09:38;;;;;;;25.73;13.53;;;;;;;-141.97;70.32;47530.59;4974889;28;20201;-87
2023/10/06 03:12:13;;;;;;;24.70;12.83;;;;;;;-141.97;70.08;47547.91;4992662;28;20258;-84
2023/10/06 03:14:39;;;;;;;27.53;13.43;;;;;;;-141.97;69.38;47530.59;4993667;28;20159;-86
2023/10/06 03:17:06;;;;;;;23.17;13.10;;;;;;;-141.97;69.41;47515.22;4993029;28;20186;-86
2023/10/06 03:19:33;;;;;;;24.57;13.37;;;;;;;-141.97;68.84;47526.75;4994047;28;20191;-87
2023/10/06 03:22:04;;;;;;;26.80;13.20;;;;;;;-141.97;68.15;47490.25;4992864;28;20253;-87
2023/10/06 03:24:33;;;;;;;30.67;13.20;;;;;;;-141.97;67.82;47609.41;4977499;28;20176;-86
2023/10/06 03:27:04;;;;;;;25.30;13.10;;;;;;;-141.97;67.63;47532.53;4976192;28;20258;-87
2023/10/06 03:29:54;;;;;;;25.93;13.27;;;;;;;-141.97;66.97;47578.66;4976122;28;20281;-85
2023/10/06 03:32:32;;;;;;;29.17;12.07;;;;;;;-141.97;66.74;47463.34;4990879;28;20681;-88
2023/10/06 03:35:05;;;;;;;24.63;12.80;;;;;;;-141.97;66.65;47567.13;4991861;28;20170;-86
2023/10/06 03:37:44;;;;;;;24.87;12.90;;;;;;;-141.97;66.93;47546.00;4992560;28;20163;-86
2023/10/06 03:40:11;;;;;;;26.07;12.07;;;;;;;-141.97;67.26;47557.53;5032419;28;20154;-87
2023/10/06 03:42:38;;;;;;;24.00;12.47;;;;;;;-141.97;66.91;47521.00;5022663;28;20166;-85
2023/10/06 03:45:18;;;;;;;24.13;12.90;;;;;;;-141.97;68.26;47546.00;5014432;28;20665;-86
2023/10/06 03:47:43;;;;;;;23.87;12.83;;;;;;;-141.97;68.24;47530.59;5031723;28;20177;-87
2023/10/06 03:50:09;;;;;;;30.50;13.20;;;;;;;-141.97;68.15;47538.28;5032312;28;20170;-87
2023/10/06 03:52:34;;;;;;;32.00;12.87;;;;;;;-141.97;68.81;47549.84;5052066;28;20186;-83
2023/10/06 03:55:00;;;;;;;22.53;12.70;;;;;;;-141.97;69.96;47570.97;5045091;28;20178;-86
2023/10/06 03:57:25;;;;;;;27.07;12.47;;;;;;;-141.97;70.09;47551.75;5048712;28;20169;-83
2023/10/06 03:59:53;;;;;;;24.77;12.10;;;;;;;-141.97;70.81;47569.06;5046706;28;20173;-86
2023/10/06 04:02:19;;;;;;;23.80;12.17;;;;;;;-141.97;70.56;47496.00;5033117;28;20610;-86
2023/10/06 04:04:44;;;;;;;22.77;12.23;;;;;;;-141.97;69.89;47567.13;5032452;28;20162;-86
2023/10/06 04:07:10;;;;;;;24.73;12.70;;;;;;;-141.97;69.45;47542.16;5032662;28;20170;-85
2023/10/06 04:09:37;;;;;;;24.77;12.97;;;;;;;-141.97;68.97;47519.06;5032413;28;20588;-87
2023/10/06 04:12:02;;;;;;;31.90;16.93;;;;;;;-141.97;68.71;47511.38;5032871;28;20182;-87
2023/10/06 04:14:31;;;;;;;34.33;17.40;;;;;;;-141.97;68.39;47661.31;5032718;28;20224;-86
2023/10/06 04:16:58;;;;;;;39.87;17.43;;;;;;;-141.97;68.76;47557.53;5013871;28;20349;-87
2023/10/06 04:19:23;;;;;;;32.17;16.20;;;;;;;-141.97;68.70;47488.31;5032098;28;20182;-89
2023/10/06 04:21:49;;;;;;;36.00;17.53;;;;;;;-141.97;69.00;47638.25;5014474;28;20170;-90
2023/10/06 04:24:14;;;;;;;31.03;14.53;;;;;;;-141.97;69.14;47649.78;5032717;28;20167;-87
2023/10/06 04:26:40;;;;;;;31.37;14.00;;;;;;;-141.97;69.27;47526.75;5031141;28;20174;-83
2023/10/06 04:29:05;;;;;;;26.80;14.27;;;;;;;-141.97;69.15;47549.84;5031490;28;20169;-84
2023/10/06 04:31:33;;;;;;;29.33;13.87;;;;;;;-141.97;69.09;47553.69;5030874;28;20229;-85
2023/10/06 04:34:01;;;;;;;34.47;15.57;;;;;;;-141.97;68.40;47540.22;5033552;28;20225;-84
2023/10/06 04:36:27;;;;;;;31.60;14.00;;;;;;;-141.97;68.15;47540.22;5049490;28;20169;-84
2023/10/06 04:38:52;;;;;;;28.57;14.30;;;;;;;-141.97;68.73;47515.22;5018328;28;20181;-84
2023/10/06 04:41:20;;;;;;;30.77;13.57;;;;;;;-141.97;69.81;47530.59;5030627;28;20212;-85
2023/10/06 04:43:45;;;;;;;25.83;13.30;;;;;;;-141.97;69.03;47476.78;5021380;28;20617;-83
2023/10/06 04:46:12;;;;;;;25.47;13.00;;;;;;;-141.97;68.56;47578.66;5030179;28;20189;-84
2023/10/06 04:48:38;;;;;;;26.37;12.93;;;;;;;-141.97;69.05;47557.53;5032295;28;20180;-84
2023/10/06 04:51:04;;;;;;;25.27;13.00;;;;;;;-141.97;69.40;47488.31;5031013;28;20189;-84
2023/10/06 04:53:34;;;;;;;29.17;13.53;;;;;;;-141.97;69.53;47553.69;5030692;28;20174;-83
2023/10/06 04:56:03;;;;;;;27.13;12.83;;;;;;;-141.97;69.72;47547.91;5012937;28;20174;-85
2023/10/06 04:58:29;;;;;;;22.37;11.97;;;;;;;-141.97;70.02;47557.53;5030887;28;20219;-83
2023/10/06 05:00:59;;;;;;;21.40;10.77;;;;;;;-141.97;70.82;47484.47;5013374;28;20173;-84
2023/10/06 05:03:25;;;;;;;22.10;11.77;;;;;;;-141.97;71.13;47526.75;5030694;28;20184;-84
2023/10/06 05:05:50;;;;;;;23.23;11.77;;;;;;;-141.97;71.03;47426.81;5030917;28;20627;-83
2023/10/06 05:08:16;;;;;;;20.37;11.27;;;;;;;-141.97;70.61;47492.16;5026114;28;20206;-83
2023/10/06 05:10:42;;;;;;;22.70;11.73;;;;;;;-141.97;69.98;47524.84;5025083;28;20668;-84
2023/10/06 05:13:08;;;;;;;26.93;12.10;;;;;;;-141.97;69.74;47590.19;5030841;28;20181;-83
2023/10/06 05:15:34;;;;;;;31.43;11.60;;;;;;;-141.97;69.19;47551.75;5032685;28;20162;-83
2023/10/06 05:18:04;;;;;;;25.83;11.60;;;;;;;-141.97;69.71;47561.38;5035213;28;20169;-84
2023/10/06 05:20:35;;;;;;;30.53;12.33;;;;;;;-141.97;68.91;47603.66;5036377;28;20226;-87
2023/10/06 05:23:09;;;;;;;25.77;12.30;;;;;;;-141.97;68.45;47546.00;5017765;28;20182;-88
2023/10/06 05:25:42;;;;;;;32.00;12.20;;;;;;;-141.97;68.02;47561.38;5035151;28;20161;-87
2023/10/06 05:28:10;;;;;;;30.80;12.57;;;;;;;-141.97;67.23;47570.97;5035467;28;20177;-88
2023/10/06 05:30:37;;;;;;;28.93;12.93;;;;;;;-141.97;67.98;47570.97;5033689;28;20188;-88
2023/10/06 05:33:03;;;;;;;28.07;13.03;;;;;;;-141.97;68.82;47565.22;5034551;28;20182;-87
2023/10/06 05:35:38;;;;;;;26.83;12.37;;;;;;;-141.97;68.26;47572.91;5016170;28;20241;-86
2023/10/06 05:38:15;;;;;;;26.17;12.07;;;;;;;-141.97;67.54;47478.72;5034147;28;20173;-87
2023/10/06 05:40:46;;;;;;;30.37;12.70;;;;;;;-141.97;67.16;47357.63;5034275;28;20178;-87
2023/10/06 05:43:12;;;;;;;26.43;12.50;;;;;;;-141.97;66.99;47605.56;5024512;28;20166;-87
2023/10/06 05:45:41;;;;;;;22.57;12.03;;;;;;;-141.97;66.53;47434.50;5034440;28;20166;-89
2023/10/06 05:48:15;;;;;;;25.73;12.63;;;;;;;-141.97;65.99;47469.09;5034483;28;20166;-87
2023/10/06 05:50:42;;;;;;;34.83;13.10;;;;;;;-141.97;65.38;47557.53;5016251;28;20201;-88
2023/10/06 05:53:12;;;;;;;28.13;12.03;;;;;;;-141.97;65.61;47578.66;5034771;28;20638;-87
2023/10/06 05:55:39;;;;;;;26.87;11.83;;;;;;;-141.97;66.03;47563.28;5016693;28;20301;-87
2023/10/06 05:58:09;;;;;;;29.10;12.37;;;;;;;-141.97;65.44;47567.13;5016858;28;20202;-89
2023/10/06 06:00:35;;;;;;;28.67;12.50;;;;;;;-141.97;64.83;47557.53;5016564;28;20186;-87
2023/10/06 06:03:10;;;;;;;28.67;13.03;;;;;;;-141.97;63.49;47501.78;5054830;28;20177;-85
2023/10/06 06:05:38;;;;;;;29.10;13.07;;;;;;;-141.97;63.27;47584.44;5051403;28;20192;-88
2023/10/06 06:08:05;;;;;;;37.00;12.80;;;;;;;-141.97;62.92;47499.84;5052368;28;20170;-88
2023/10/06 06:10:30;;;;;;;40.50;15.13;;;;;;;-141.97;62.48;47432.59;5046766;28;20170;-87
2023/10/06 06:12:56;;;;;;;41.93;15.83;;;;;;;-141.97;61.63;47486.41;5019945;28;20641;-86
2023/10/06 06:15:22;;;;;;;35.13;16.30;;;;;;;-141.97;61.39;47455.66;5035980;28;20162;-86
2023/10/06 06:17:47;;;;;;;38.87;16.77;;;;;;;-141.97;62.10;47572.91;5017952;28;20186;-86
2023/10/06 06:20:18;;;;;;;29.60;14.77;;;;;;;-141.97;61.68;47538.28;5034100;28;20663;-87
2023/10/06 06:22:53;;;;;;;36.80;16.13;;;;;;;-141.97;60.90;47601.72;5033584;28;20166;-85
2023/10/06 06:25:19;;;;;;;32.73;15.47;;;;;;;-141.97;60.26;47459.50;5033910;28;20535;-86
2023/10/06 06:27:45;;;;;;;40.23;16.93;;;;;;;-141.97;58.89;47688.22;5033611;28;20162;-86
2023/10/06 06:30:11;;;;;;;32.23;16.20;;;;;;;-141.97;57.71;47574.81;5033821;28;20212;-87
2023/10/06 06:32:36;;;;;;;30.87;13.27;;;;;;;-141.97;57.38;47546.00;5016728;28;20242;-86
2023/10/06 06:35:02;;;;;;;34.83;14.17;;;;;;;-141.97;56.56;47530.59;5032597;28;20173;-86
2023/10/06 06:37:27;;;;;;;34.13;14.23;;;;;;;-141.97;55.96;47426.81;5034323;28;20189;-86
2023/10/06 06:39:53;;;;;;;33.70;12.70;;;;;;;-141.97;55.13;47501.78;5033192;28;20186;-86
2023/10/06 06:42:19;;;;;;;30.07;12.80;;;;;;;-141.97;55.11;47378.78;5033282;28;20293;-86
2023/10/06 06:44:47;;;;;;;25.47;12.03;;;;;;;-141.97;53.85;47346.09;5023501;28;20581;-86
2023/10/06 06:47:16;;;;;;;23.70;11.80;;;;;;;-141.97;53.66;47530.59;5034210;28;20150;-86
2023/10/06 06:49:48;;;;;;;27.23;11.70;;;;;;;-141.97;53.75;47511.38;5033743;28;20212;-88
2023/10/06 06:52:14;;;;;;;24.70;11.10;;;;;;;-141.97;54.03;47538.28;5016557;28;20197;-87
2023/10/06 06:54:46;;;;;;;26.60;12.20;;;;;;;-141.97;54.06;47499.84;5036606;28;20596;-85
2023/10/06 06:57:12;;;;;;;28.57;12.00;;;;;;;-141.97;53.70;47718.97;5053656;28;20157;-86
2023/10/06 06:59:39;;;;;;;27.57;13.33;;;;;;;-141.97;53.29;47419.13;5042706;28;20245;-86
2023/10/06 07:02:04;;;;;;;28.13;12.47;;;;;;;-141.97;52.81;47349.94;5012831;28;20625;-88
2023/10/06 07:04:30;;;;;;;32.30;12.77;;;;;;;-141.97;52.72;47407.59;5009134;28;20181;-86
2023/10/06 07:06:55;;;;;;;23.70;12.40;;;;;;;-141.97;52.53;47330.72;5033079;28;20184;-87
2023/10/06 07:09:22;;;;;;;23.40;12.10;;;;;;;-141.97;51.85;47442.19;5032277;28;20170;-87
2023/10/06 07:11:48;;;;;;;29.00;14.00;;;;;;;-141.97;51.53;47644.00;5032267;28;20309;-87
2023/10/06 07:14:14;;;;;;;25.07;12.77;;;;;;;-141.97;50.10;47361.47;5014736;28;20188;-87
2023/10/06 07:16:42;;;;;;;28.13;12.60;;;;;;;-141.97;49.51;47392.22;5042067;28;20218;-86
2023/10/06 07:19:07;;;;;;;28.00;14.67;;;;;;;-141.97;49.80;47363.41;5047136;28;20174;-86
2023/10/06 07:21:32;;;;;;;29.33;16.10;;;;;;;-141.97;49.63;47653.63;5046460;28;20161;-87
2023/10/06 07:23:58;;;;;;;32.60;15.53;;;;;;;-141.97;49.52;47586.34;5015727;28;20161;-87
2023/10/06 07:26:23;;;;;;;31.10;14.20;;;;;;;-141.97;49.25;47524.84;5032848;28;20633;-87
2023/10/06 07:28:52;;;;;;;29.23;13.07;;;;;;;-141.97;49.57;47422.97;5034931;28;20158;-87
2023/10/06 07:31:19;;;;;;;26.43;13.70;;;;;;;-141.97;50.09;47399.91;5018613;28;20237;-87
2023/10/06 07:33:47;;;;;;;25.80;13.33;;;;;;;-141.97;49.59;47342.25;5017763;28;20173;-87
2023/10/06 07:36:17;;;;;;;24.40;13.77;;;;;;;-141.97;48.88;47657.47;5017890;28;20185;-88
2023/10/06 07:38:43;;;;;;;23.17;12.87;;;;;;;-141.97;47.76;47503.69;5019253;28;20192;-86
2023/10/06 07:41:25;;;;;;;27.40;12.30;;;;;;;-141.97;46.57;47334.56;5033765;28;20162;-87
2023/10/06 07:43:54;;;;;;;27.13;12.87;;;;;;;-141.97;45.84;47480.63;5007457;28;20258;-88
2023/10/06 07:46:20;;;;;;;28.13;15.20;;;;;;;-141.97;45.57;47503.69;5021306;28;20185;-86
2023/10/06 07:48:46;;;;;;;34.27;15.00;;;;;;;-141.97;45.32;47461.41;5034196;28;20618;-86
2023/10/06 07:51:16;;;;;;;35.60;19.53;;;;;;;-141.97;45.01;47472.94;5032975;28;20618;-86
2023/10/06 07:53:43;;;;;;;28.00;15.90;;;;;;;-141.97;44.74;47636.31;5014551;28;20269;-88
2023/10/06 07:56:09;;;;;;;24.53;12.70;;;;;;;-141.97;44.50;47478.72;5013685;28;20212;-85
2023/10/06 07:58:41;;;;;;;18.67;10.13;;;;;;;-141.97;44.59;47565.22;5032495;28;20201;-86
2023/10/06 08:01:12;;;;;;;22.00;9.77;;;;;;;-141.97;45.00;47669.00;5031552;28;20548;-86
2023/10/06 08:03:39;;;;;;;24.50;10.13;;;;;;;-141.97;44.74;47505.63;5013364;28;20518;-86
2023/10/06 08:06:05;;;;;;;21.77;9.10;;;;;;;-141.97;44.98;47474.88;5031514;28;20169;-87
2023/10/06 08:08:34;;;;;;;15.87;9.57;;;;;;;-141.97;44.53;47449.88;5032251;28;20240;-87
2023/10/06 08:11:05;;;;;;;17.97;9.07;;;;;;;-141.97;44.80;47509.47;5014900;28;20202;-85
2023/10/06 08:13:31;;;;;;;17.27;8.83;;;;;;;-141.97;45.43;47461.41;5055205;28;20160;-84
2023/10/06 08:15:58;;;;;;;17.73;9.87;;;;;;;-141.97;45.54;47626.72;5053273;28;20209;-83
2023/10/06 08:18:24;;;;;;;18.97;9.37;;;;;;;-141.97;45.62;47626.72;5050943;28;20151;-86
2023/10/06 08:20:50;;;;;;;22.23;9.80;;;;;;;-141.97;45.38;47626.72;5044804;28;20181;-86
2023/10/06 08:23:15;;;;;;;22.30;9.70;;;;;;;-141.97;45.23;47503.69;5034641;28;20241;-88
2023/10/06 08:25:42;;;;;;;18.17;10.03;;;;;;;-141.97;45.30;47392.22;5031743;28;20634;-86
2023/10/06 08:28:07;;;;;;;18.13;10.60;;;;;;;-141.97;45.75;47271.16;5031545;28;20161;-86
2023/10/06 08:30:33;;;;;;;24.50;10.50;;;;;;;-141.97;45.23;47409.53;5031540;28;20235;-85
2023/10/06 08:32:59;;;;;;;27.03;11.30;;;;;;;-141.97;45.00;47534.44;5032719;28;20166;-87
2023/10/06 08:35:26;;;;;;;25.53;11.60;;;;;;;-141.97;45.23;47513.31;5014563;28;20546;-86
2023/10/06 08:37:52;;;;;;;21.23;11.20;;;;;;;-141.97;44.70;47644.00;5031914;28;20203;-87
2023/10/06 08:40:22;;;;;;;18.13;10.10;;;;;;;-141.97;44.45;47492.16;5031581;28;20287;-86
2023/10/06 08:42:53;;;;;;;24.00;9.97;;;;;;;-141.97;44.63;47595.97;5035658;28;20544;-86
2023/10/06 08:45:26;;;;;;;18.23;9.60;;;;;;;-141.97;45.08;47415.28;5004205;28;20226;-88
2023/10/06 08:47:59;;;;;;;16.73;10.00;;;;;;;-141.97;44.95;47665.16;5031574;28;20245;-85
2023/10/06 08:50:27;;;;;;;21.33;10.13;;;;;;;-141.97;45.01;47380.69;5030469;28;20180;-86
2023/10/06 08:52:54;;;;;;;20.30;10.10;;;;;;;-141.97;45.20;47388.38;5031011;28;20176;-86
2023/10/06 08:55:24;;;;;;;18.10;10.13;;;;;;;-141.97;45.55;47426.81;5030955;28;20162;-86
2023/10/06 08:57:51;;;;;;;19.47;10.97;;;;;;;-141.97;45.10;47507.53;5031548;28;20517;-86
2023/10/06 09:00:24;;;;;;;21.23;10.77;;;;;;;-141.97;44.78;47438.34;5030617;28;20222;-86
2023/10/06 09:02:51;;;;;;;22.17;11.40;;;;;;;-141.97;44.69;47367.25;5031050;28;20157;-87
2023/10/06 09:05:18;;;;;;;24.57;11.10;;;;;;;-141.97;44.48;47403.75;5032979;28;20166;-87
2023/10/06 09:08:09;;;;;;;26.63;11.40;;;;;;;-141.97;44.85;47469.09;5031942;28;20181;-86
2023/10/06 09:10:40;;;;;;;25.57;11.73;;;;;;;-141.97;44.78;47492.16;5031356;28;20174;-85
2023/10/06 09:13:16;;;;;;;27.33;11.37;;;;;;;-141.97;44.48;47442.19;5016735;28;20224;-86
2023/10/06 09:15:43;;;;;;;21.93;11.27;;;;;;;-141.97;44.58;47576.75;5034310;28;20170;-88
2023/10/06 09:18:23;;;;;;;20.23;11.53;;;;;;;-141.97;44.42;47459.50;5055214;28;20206;-86
2023/10/06 09:20:50;;;;;;;21.90;11.57;;;;;;;-141.97;44.19;47519.06;5016867;28;20284;-86
2023/10/06 09:23:34;;;;;;;22.27;11.00;;;;;;;-141.97;43.70;47461.41;5032904;28;20542;-86
2023/10/06 09:26:01;;;;;;;20.93;10.67;;;;;;;-141.97;43.22;47444.13;5030679;28;20166;-85
2023/10/06 09:28:28;;;;;;;20.30;10.80;;;;;;;-141.97;42.68;47476.78;5031270;28;20199;-85
2023/10/06 09:31:00;;;;;;;20.30;10.63;;;;;;;-141.97;43.06;47478.72;5013019;28;20237;-86
2023/10/06 09:33:27;;;;;;;20.33;11.37;;;;;;;-141.97;42.42;47494.09;5030091;28;20178;-86
2023/10/06 09:36:21;;;;;;;21.77;13.57;;;;;;;-141.97;41.72;47457.56;5031112;28;20174;-86
2023/10/06 09:38:47;;;;;;;21.00;12.17;;;;;;;-141.97;42.31;47459.50;5030883;28;20173;-86
2023/10/06 09:41:29;;;;;;;27.33;13.93;;;;;;;-141.97;42.08;47411.44;5012929;28;20166;-86
2023/10/06 09:44:02;;;;;;;21.60;12.87;;;;;;;-141.97;41.49;47653.63;5018927;28;20241;-86
2023/10/06 09:46:29;;;;;;;21.30;10.60;;;;;;;-141.97;41.35;47313.44;5030525;28;20178;-85
2023/10/06 09:48:59;;;;;;;22.90;10.87;;;;;;;-141.97;40.76;47667.06;5029078;28;20178;-88
2023/10/06 09:51:30;;;;;;;22.63;11.60;;;;;;;-141.97;40.73;47319.19;5043455;28;20190;-86
2023/10/06 09:53:58;;;;;;;19.80;11.23;;;;;;;-141.97;40.59;47242.31;5040794;28;20170;-86
2023/10/06 09:56:23;;;;;;;16.87;10.80;;;;;;;-141.97;40.46;47273.06;5031493;28;20169;-84
2023/10/06 09:58:49;;;;;;;24.10;11.97;;;;;;;-141.97;40.32;47376.84;5032192;28;20166;-86
2023/10/06 10:01:15;;;;;;;19.93;10.20;;;;;;;-141.97;39.98;47201.97;5031509;28;20281;-86
2023/10/06 10:03:44;;;;;;;22.57;10.10;;;;;;;-141.97;39.23;47419.13;5034120;28;20170;-86
2023/10/06 10:06:10;;;;;;;23.30;10.20;;;;;;;-141.97;39.29;47273.06;5034276;28;20238;-88
2023/10/06 10:08:40;;;;;;;17.90;8.87;;;;;;;-141.97;38.78;47484.47;5034390;28;20162;-91
2023/10/06 10:11:14;;;;;;;17.48;9.00;;;;;;;-141.97;38.76;47413.38;5021732;28;20202;-90
2023/10/06 10:14:03;;;;;;;16.63;8.43;;;;;;;-141.97;38.68;47430.66;5035715;28;20181;-88
2023/10/06 10:16:38;;;;;;;18.57;9.47;;;;;;;-141.97;38.87;47421.06;5034644;28;20172;-88
2023/10/06 10:19:13;;;;;;;15.93;8.60;;;;;;;-141.97;38.35;47296.13;5034812;28;20571;-88
2023/10/06 10:21:41;;;;;;;19.23;9.60;;;;;;;-141.97;38.69;47357.63;5023663;28;20170;-87
2023/10/06 10:24:09;;;;;;;18.73;10.03;;;;;;;-141.97;38.52;47396.06;5073859;22;20173;-88
2023/10/06 10:26:37;;;;;;;17.73;9.80;;;;;;;-141.97;37.91;47376.84;5070935;28;20188;-85
2023/10/06 10:29:12;;;;;;;17.70;9.68;;;;;;;-141.97;38.07;47392.22;5086636;28;20186;-86
2023/10/06 10:31:38;;;;;;;15.57;9.55;;;;;;;-141.97;37.57;47542.16;5080233;28;20598;-86
2023/10/06 10:34:05;;;;;;;15.75;9.43;;;;;;;-141.97;37.79;47446.03;5078398;28;20173;-87
2023/10/06 10:36:31;;;;;;;17.02;9.80;;;;;;;-141.97;37.85;47365.31;5074447;28;20168;-89
2023/10/06 10:39:02;;;;;;;16.30;9.73;;;;;;;-141.97;38.43;47346.09;5055974;28;20544;-89
2023/10/06 10:41:35;;;;;;;17.23;10.27;;;;;;;-141.97;38.22;47411.44;5059820;28;20179;-91
2023/10/06 10:44:03;;;;;;;18.17;10.27;;;;;;;-141.97;37.77;47388.38;5051654;28;20237;-89
2023/10/06 10:46:38;;;;;;;18.55;10.13;;;;;;;-141.97;37.49;47647.84;5081616;28;20629;-92
2023/10/06 10:49:11;;;;;;;18.10;10.57;;;;;;;-141.97;36.69;47299.97;5075790;28;20623;-89
2023/10/06 10:51:57;;;;;;;20.17;11.35;;;;;;;-141.97;37.66;47586.34;5056397;28;20198;-88
2023/10/06 10:54:26;;;;;;;20.23;10.95;;;;;;;-141.97;37.51;47430.66;5073528;28;20168;-88
2023/10/06 10:56:53;;;;;;;17.70;11.35;;;;;;;-141.97;37.05;47409.53;5075716;28;20232;-89
2023/10/06 10:59:20;;;;;;;18.83;11.55;;;;;;;-141.97;36.51;47288.44;5077327;28;20181;-87
2023/10/06 11:01:53;;;;;;;21.08;11.93;;;;;;;-141.97;37.34;47526.75;5074781;28;20170;-89
2023/10/06 11:04:30;;;;;;;17.35;11.65;;;;;;;-141.97;37.20;47405.69;5074590;28;20173;-88
2023/10/06 11:07:10;;;;;;;17.45;12.05;;;;;;;-141.97;36.67;47505.63;5075551;28;20706;-87
2023/10/06 11:09:47;;;;;;;16.45;11.65;;;;;;;-141.97;37.10;47396.06;5075513;28;20166;-88
2023/10/06 11:12:21;;;;;;;16.95;12.63;;;;;;;-141.97;37.33;47413.38;5072791;28;20752;-87
2023/10/06 11:14:51;;;;;;;18.15;11.98;;;;;;;-141.97;36.72;47382.63;5053438;28;20199;-85
2023/10/06 11:17:31;;;;;;;15.57;11.68;;;;;;;-141.97;36.99;47642.09;5055524;28;20166;-88
2023/10/06 11:20:00;;;;;;;19.23;12.05;;;;;;;-141.97;37.09;47413.38;5072248;28;20177;-87